sensor_id;sensor_type;location;lat;lon;timestamp;pressure;altitude;pressure_sealevel;temperature;humidity
54951;BME280;40854;45.282;4.302;2023-02-13T06:48:03;93631.13;;;17.29;31.79
54951;BME280;40854;45.282;4.302;2023-02-13T06:50:29;93649.91;;;17.44;31.85
54951;BME280;40854;45.282;4.302;2023-02-13T06:52:54;93647.50;;;17.60;31.52
54951;BME280;40854;45.282;4.302;2023-02-13T06:55:20;93643.25;;;17.75;30.53
54951;BME280;40854;45.282;4.302;2023-02-13T06:57:46;93645.78;;;17.87;30.85
54951;BME280;40854;45.282;4.302;2023-02-13T07:00:14;93654.38;;;17.94;30.83
54951;BME280;40854;45.282;4.302;2023-02-13T07:02:42;93645.31;;;18.12;30.62
54951;BME280;40854;45.282;4.302;2023-02-13T07:05:08;93647.59;;;18.25;29.93
54951;BME280;40854;45.282;4.302;2023-02-13T07:07:36;93643.94;;;18.31;30.25
54951;BME280;40854;45.282;4.302;2023-02-13T07:10:02;93641.34;;;18.36;29.55
54951;BME280;40854;45.282;4.302;2023-02-13T07:12:28;93656.97;;;18.55;28.85
54951;BME280;40854;45.282;4.302;2023-02-13T07:14:54;93660.25;;;18.62;30.01
54951;BME280;40854;45.282;4.302;2023-02-13T07:17:19;93645.53;;;18.54;29.65
54951;BME280;40854;45.282;4.302;2023-02-13T07:19:45;93641.31;;;18.58;29.92
54951;BME280;40854;45.282;4.302;2023-02-13T07:22:10;93667.78;;;18.70;29.27
54951;BME280;40854;45.282;4.302;2023-02-13T07:24:36;93670.31;;;18.81;29.51
54951;BME280;40854;45.282;4.302;2023-02-13T07:27:03;93658.56;;;18.77;28.89
54951;BME280;40854;45.282;4.302;2023-02-13T07:29:29;93664.19;;;18.81;28.58
54951;BME280;40854;45.282;4.302;2023-02-13T07:31:54;93671.97;;;18.88;28.87
54951;BME280;40854;45.282;4.302;2023-02-13T07:34:20;93670.16;;;18.93;28.84
54951;BME280;40854;45.282;4.302;2023-02-13T07:36:45;93649.84;;;18.82;29.55
54951;BME280;40854;45.282;4.302;2023-02-13T07:39:11;93658.94;;;18.86;29.33
54951;BME280;40854;45.282;4.302;2023-02-13T07:41:37;93680.59;;;19.00;28.72
54951;BME280;40854;45.282;4.302;2023-02-13T07:44:02;93652.25;;;18.84;28.74
54951;BME280;40854;45.282;4.302;2023-02-13T07:46:28;93667.81;;;18.97;28.37
54951;BME280;40854;45.282;4.302;2023-02-13T07:48:53;93663.25;;;18.92;28.51
54951;BME280;40854;45.282;4.302;2023-02-13T07:51:19;93653.41;;;18.93;28.71
54951;BME280;40854;45.282;4.302;2023-02-13T07:53:45;93670.31;;;19.08;29.04
54951;BME280;40854;45.282;4.302;2023-02-13T07:56:11;93668.66;;;19.02;28.64
54951;BME280;40854;45.282;4.302;2023-02-13T07:58:37;93669.16;;;18.99;28.98
54951;BME280;40854;45.282;4.302;2023-02-13T08:01:09;93669.47;;;19.03;28.83
54951;BME280;40854;45.282;4.302;2023-02-13T08:03:36;93656.13;;;18.98;28.46
54951;BME280;40854;45.282;4.302;2023-02-13T08:06:03;93671.16;;;19.14;28.55
54951;BME280;40854;45.282;4.302;2023-02-13T08:08:29;93675.97;;;19.17;27.86
54951;BME280;40854;45.282;4.302;2023-02-13T08:10:55;93667.19;;;19.17;28.07
54951;BME280;40854;45.282;4.302;2023-02-13T08:13:41;93670.59;;;19.12;28.85
54951;BME280;40854;45.282;4.302;2023-02-13T08:16:08;93672.25;;;19.18;28.27
54951;BME280;40854;45.282;4.302;2023-02-13T08:18:33;93655.91;;;19.04;28.58
54951;BME280;40854;45.282;4.302;2023-02-13T08:21:01;93684.25;;;19.21;28.41
54951;BME280;40854;45.282;4.302;2023-02-13T08:23:27;93660.47;;;19.09;28.02
54951;BME280;40854;45.282;4.302;2023-02-13T08:25:52;93674.16;;;19.23;28.74
54951;BME280;40854;45.282;4.302;2023-02-13T08:28:18;93682.66;;;19.20;28.84
54951;BME280;40854;45.282;4.302;2023-02-13T08:30:43;93678.94;;;19.21;28.39
54951;BME280;40854;45.282;4.302;2023-02-13T08:33:09;93677.88;;;19.22;29.40
54951;BME280;40854;45.282;4.302;2023-02-13T08:35:34;93677.06;;;19.21;29.32
54951;BME280;40854;45.282;4.302;2023-02-13T08:38:02;93685.06;;;19.21;29.42
54951;BME280;40854;45.282;4.302;2023-02-13T08:40:27;93683.44;;;19.20;28.74
54951;BME280;40854;45.282;4.302;2023-02-13T08:42:58;93681.59;;;19.21;28.72
54951;BME280;40854;45.282;4.302;2023-02-13T08:45:25;93686.91;;;19.21;28.97
54951;BME280;40854;45.282;4.302;2023-02-13T08:47:55;93679.47;;;19.23;28.82
54951;BME280;40854;45.282;4.302;2023-02-13T08:50:21;93684.56;;;19.24;28.77
54951;BME280;40854;45.282;4.302;2023-02-13T08:52:46;93679.72;;;19.21;29.35
54951;BME280;40854;45.282;4.302;2023-02-13T08:55:12;93685.06;;;19.21;28.44
54951;BME280;40854;45.282;4.302;2023-02-13T08:57:37;93683.75;;;19.24;28.90
54951;BME280;40854;45.282;4.302;2023-02-13T09:00:03;93682.94;;;19.23;29.29
54951;BME280;40854;45.282;4.302;2023-02-13T09:02:30;93686.66;;;19.22;28.64
54951;BME280;40854;45.282;4.302;2023-02-13T09:04:55;93687.97;;;19.20;29.16
54951;BME280;40854;45.282;4.302;2023-02-13T09:07:21;93687.75;;;19.26;29.34
54951;BME280;40854;45.282;4.302;2023-02-13T09:09:46;93689.38;;;19.27;28.68
54951;BME280;40854;45.282;4.302;2023-02-13T09:12:12;93680.06;;;19.30;28.91
54951;BME280;40854;45.282;4.302;2023-02-13T09:14:37;93683.28;;;19.32;29.19
54951;BME280;40854;45.282;4.302;2023-02-13T09:17:04;93687.56;;;19.33;28.52
54951;BME280;40854;45.282;4.302;2023-02-13T09:19:29;93683.84;;;19.34;29.42
54951;BME280;40854;45.282;4.302;2023-02-13T09:21:55;93684.09;;;19.32;29.16
54951;BME280;40854;45.282;4.302;2023-02-13T09:24:21;93695.03;;;19.36;28.96
54951;BME280;40854;45.282;4.302;2023-02-13T09:26:47;93693.72;;;19.38;29.62
54951;BME280;40854;45.282;4.302;2023-02-13T09:29:13;93682.28;;;19.38;29.46
54951;BME280;40854;45.282;4.302;2023-02-13T09:31:38;93660.63;;;19.24;29.61
54951;BME280;40854;45.282;4.302;2023-02-13T09:34:04;93672.16;;;19.35;29.22
54951;BME280;40854;45.282;4.302;2023-02-13T09:36:30;93679.38;;;19.39;29.08
54951;BME280;40854;45.282;4.302;2023-02-13T09:38:56;93675.81;;;19.29;28.64
54951;BME280;40854;45.282;4.302;2023-02-13T09:41:35;93681.19;;;19.34;29.44
54951;BME280;40854;45.282;4.302;2023-02-13T09:50:02;93682.19;;;19.28;29.38
54951;BME280;40854;45.282;4.302;2023-02-13T09:52:36;93681.88;;;19.24;29.04
54951;BME280;40854;45.282;4.302;2023-02-13T09:55:33;93690.97;;;19.28;28.98
54951;BME280;40854;45.282;4.302;2023-02-13T10:00:52;93689.63;;;19.26;29.56
54951;BME280;40854;45.282;4.302;2023-02-13T10:03:28;93691.72;;;19.24;29.64
54951;BME280;40854;45.282;4.302;2023-02-13T10:06:13;93698.19;;;19.33;29.17
54951;BME280;40854;45.282;4.302;2023-02-13T10:14:18;93693.69;;;19.33;29.60
54951;BME280;40854;45.282;4.302;2023-02-13T10:16:54;93696.09;;;19.35;29.20
54951;BME280;40854;45.282;4.302;2023-02-13T10:22:19;93697.22;;;19.44;26.74
54951;BME280;40854;45.282;4.302;2023-02-13T10:27:39;93694.78;;;19.37;27.95
54951;BME280;40854;45.282;4.302;2023-02-13T10:35:36;93689.19;;;19.39;28.74
54951;BME280;40854;45.282;4.302;2023-02-13T10:38:14;93694.28;;;19.40;29.11
54951;BME280;40854;45.282;4.302;2023-02-13T10:40:50;93695.06;;;19.41;28.30
54951;BME280;40854;45.282;4.302;2023-02-13T10:43:19;93690.31;;;19.43;28.36
54951;BME280;40854;45.282;4.302;2023-02-13T10:45:56;93689.53;;;19.48;28.01
54951;BME280;40854;45.282;4.302;2023-02-13T10:53:49;93680.75;;;19.47;28.80
54951;BME280;40854;45.282;4.302;2023-02-13T10:56:54;93680.25;;;19.50;28.94
54951;BME280;40854;45.282;4.302;2023-02-13T11:02:22;93681.94;;;19.56;27.94
54951;BME280;40854;45.282;4.302;2023-02-13T11:07:33;93683.81;;;19.61;25.34
54951;BME280;40854;45.282;4.302;2023-02-13T11:10:12;93681.97;;;19.61;25.00
54951;BME280;40854;45.282;4.302;2023-02-13T11:12:38;93678.25;;;19.62;24.63
54951;BME280;40854;45.282;4.302;2023-02-13T11:15:06;93681.72;;;19.63;26.63
54951;BME280;40854;45.282;4.302;2023-02-13T11:17:37;93670.56;;;19.66;27.19
54951;BME280;40854;45.282;4.302;2023-02-13T11:22:55;93660.44;;;19.63;26.99
54951;BME280;40854;45.282;4.302;2023-02-13T11:25:27;93650.03;;;19.61;27.40
54951;BME280;40854;45.282;4.302;2023-02-13T11:28:16;93666.41;;;19.80;27.66
54951;BME280;40854;45.282;4.302;2023-02-13T11:30:42;93668.84;;;19.87;27.42
54951;BME280;40854;45.282;4.302;2023-02-13T11:35:44;93651.81;;;19.88;27.49
54951;BME280;40854;45.282;4.302;2023-02-13T11:40:41;93665.22;;;20.03;27.10
54951;BME280;40854;45.282;4.302;2023-02-13T11:43:26;93662.84;;;20.06;27.56
54951;BME280;40854;45.282;4.302;2023-02-13T11:46:15;93664.19;;;20.09;27.42
54951;BME280;40854;45.282;4.302;2023-02-13T11:48:42;93661.56;;;20.14;27.60
54951;BME280;40854;45.282;4.302;2023-02-13T11:51:08;93656.25;;;20.19;27.75
54951;BME280;40854;45.282;4.302;2023-02-13T11:53:38;93658.69;;;20.26;27.84
54951;BME280;40854;45.282;4.302;2023-02-13T11:56:09;93652.84;;;20.34;28.05
54951;BME280;40854;45.282;4.302;2023-02-13T11:58:35;93656.06;;;20.36;27.81
54951;BME280;40854;45.282;4.302;2023-02-13T12:01:24;93652.31;;;20.32;27.80
54951;BME280;40854;45.282;4.302;2023-02-13T12:06:25;93651.06;;;20.45;27.81
54951;BME280;40854;45.282;4.302;2023-02-13T12:08:51;93641.78;;;20.52;27.61
54951;BME280;40854;45.282;4.302;2023-02-13T12:11:39;93648.47;;;20.60;28.22
54951;BME280;40854;45.282;4.302;2023-02-13T12:14:14;93642.38;;;20.69;27.69
54951;BME280;40854;45.282;4.302;2023-02-13T12:16:49;93643.69;;;20.72;27.76
54951;BME280;40854;45.282;4.302;2023-02-13T12:19:30;93637.84;;;20.75;27.58
54951;BME280;40854;45.282;4.302;2023-02-13T12:24:57;93636.47;;;20.62;27.74
54951;BME280;40854;45.282;4.302;2023-02-13T12:30:17;93623.44;;;20.71;27.77
54951;BME280;40854;45.282;4.302;2023-02-13T12:38:55;93629.06;;;20.90;27.78
54951;BME280;40854;45.282;4.302;2023-02-13T12:44:31;93615.47;;;21.01;27.76
54951;BME280;40854;45.282;4.302;2023-02-13T12:47:13;93616.28;;;21.12;27.54
54951;BME280;40854;45.282;4.302;2023-02-13T12:53:26;93609.66;;;21.25;27.23
54951;BME280;40854;45.282;4.302;2023-02-13T12:55:42;93613.66;;;21.37;27.79
54951;BME280;40854;45.282;4.302;2023-02-13T13:01:16;93618.19;;;21.37;27.71
54951;BME280;40854;45.282;4.302;2023-02-13T13:22:27;93589.84;;;21.82;27.54
54951;BME280;40854;45.282;4.302;2023-02-13T13:25:15;93582.38;;;21.84;27.30
54951;BME280;40854;45.282;4.302;2023-02-13T13:27:48;93581.56;;;21.88;27.25
54951;BME280;40854;45.282;4.302;2023-02-13T13:30:21;93583.94;;;22.05;27.62
54951;BME280;40854;45.282;4.302;2023-02-13T13:32:55;93577.81;;;22.05;27.47
54951;BME280;40854;45.282;4.302;2023-02-13T13:35:22;93577.22;;;22.18;27.70
54951;BME280;40854;45.282;4.302;2023-02-13T13:38:15;93571.03;;;22.32;26.92
54951;BME280;40854;45.282;4.302;2023-02-13T13:40:56;93571.56;;;22.29;27.32
54951;BME280;40854;45.282;4.302;2023-02-13T13:43:46;93582.72;;;22.47;26.58
54951;BME280;40854;45.282;4.302;2023-02-13T13:46:16;93566.59;;;22.62;26.59
54951;BME280;40854;45.282;4.302;2023-02-13T13:51:35;93571.84;;;22.77;26.60
54951;BME280;40854;45.282;4.302;2023-02-13T14:07:45;93565.31;;;24.14;25.29
54951;BME280;40854;45.282;4.302;2023-02-13T14:17:59;93560.84;;;23.57;26.40
54951;BME280;40854;45.282;4.302;2023-02-13T14:33:42;93571.34;;;23.77;26.42
54951;BME280;40854;45.282;4.302;2023-02-13T14:36:20;93563.59;;;23.76;26.27
54951;BME280;40854;45.282;4.302;2023-02-13T14:38:55;93563.03;;;23.79;26.19
54951;BME280;40854;45.282;4.302;2023-02-13T14:47:28;93571.25;;;23.87;24.88
54951;BME280;40854;45.282;4.302;2023-02-13T14:49:58;93554.94;;;23.84;25.15
54951;BME280;40854;45.282;4.302;2023-02-13T14:52:32;93574.72;;;23.88;24.91
54951;BME280;40854;45.282;4.302;2023-02-13T14:55:06;93566.41;;;23.89;24.23
54951;BME280;40854;45.282;4.302;2023-02-13T14:57:46;93567.72;;;23.92;24.61
54951;BME280;40854;45.282;4.302;2023-02-13T15:00:25;93570.09;;;23.93;24.28
54951;BME280;40854;45.282;4.302;2023-02-13T15:02:58;93565.50;;;23.99;24.68
54951;BME280;40854;45.282;4.302;2023-02-13T15:05:32;93567.63;;;26.04;22.12
54951;BME280;40854;45.282;4.302;2023-02-13T15:08:07;93558.78;;;25.90;22.33
54951;BME280;40854;45.282;4.302;2023-02-13T15:10:51;93545.59;;;24.90;23.79
54951;BME280;40854;45.282;4.302;2023-02-13T15:15:50;93556.31;;;24.53;24.42
54951;BME280;40854;45.282;4.302;2023-02-13T15:18:23;93553.34;;;24.54;24.56
54951;BME280;40854;45.282;4.302;2023-02-13T15:20:54;93557.81;;;24.59;24.39
54951;BME280;40854;45.282;4.302;2023-02-13T15:23:26;93550.81;;;24.63;24.52
54951;BME280;40854;45.282;4.302;2023-02-13T15:26:01;93548.06;;;24.68;24.79
54951;BME280;40854;45.282;4.302;2023-02-13T15:28:28;93546.75;;;24.66;24.87
54951;BME280;40854;45.282;4.302;2023-02-13T15:31:02;93544.50;;;24.54;24.48
54951;BME280;40854;45.282;4.302;2023-02-13T15:33:42;93551.00;;;24.48;25.15
54951;BME280;40854;45.282;4.302;2023-02-13T15:36:18;93550.22;;;24.47;25.61
54951;BME280;40854;45.282;4.302;2023-02-13T15:38:44;93556.38;;;24.48;25.46
54951;BME280;40854;45.282;4.302;2023-02-13T15:41:20;93550.50;;;24.46;25.57
54951;BME280;40854;45.282;4.302;2023-02-13T15:43:57;93546.50;;;24.43;25.31
54951;BME280;40854;45.282;4.302;2023-02-13T15:46:29;93555.34;;;24.44;25.58
54951;BME280;40854;45.282;4.302;2023-02-13T15:49:00;93544.63;;;24.44;25.49
54951;BME280;40854;45.282;4.302;2023-02-13T15:51:30;93550.00;;;24.44;25.94
54951;BME280;40854;45.282;4.302;2023-02-13T15:54:01;93547.31;;;24.44;25.72
54951;BME280;40854;45.282;4.302;2023-02-13T15:56:29;93555.63;;;25.36;24.70
54951;BME280;40854;45.282;4.302;2023-02-13T15:58:58;93541.94;;;26.11;23.74
54951;BME280;40854;45.282;4.302;2023-02-13T16:01:24;93548.63;;;26.41;23.39
54951;BME280;40854;45.282;4.302;2023-02-13T16:04:10;93551.81;;;27.74;21.79
54951;BME280;40854;45.282;4.302;2023-02-13T16:06:37;93544.84;;;26.92;22.36
54951;BME280;40854;45.282;4.302;2023-02-13T16:09:03;93551.22;;;25.92;23.44
54951;BME280;40854;45.282;4.302;2023-02-13T16:11:38;93555.25;;;25.43;24.26
54951;BME280;40854;45.282;4.302;2023-02-13T16:21:55;93551.53;;;24.69;24.88
54951;BME280;40854;45.282;4.302;2023-02-13T16:24:24;93559.44;;;24.60;24.63
54951;BME280;40854;45.282;4.302;2023-02-13T16:26:51;93551.69;;;24.77;24.64
54951;BME280;40854;45.282;4.302;2023-02-13T16:29:19;93568.91;;;25.46;24.36
54951;BME280;40854;45.282;4.302;2023-02-13T16:31:48;93565.44;;;25.27;24.01
54951;BME280;40854;45.282;4.302;2023-02-13T16:34:26;93567.44;;;25.03;24.33
54951;BME280;40854;45.282;4.302;2023-02-13T16:36:53;93567.75;;;25.34;24.36
54951;BME280;40854;45.282;4.302;2023-02-13T16:39:26;93573.56;;;25.41;24.48
54951;BME280;40854;45.282;4.302;2023-02-13T16:41:52;93574.78;;;25.48;24.30
54951;BME280;40854;45.282;4.302;2023-02-13T16:44:29;93573.75;;;25.12;24.65
54951;BME280;40854;45.282;4.302;2023-02-13T16:46:58;93569.72;;;24.90;24.47
54951;BME280;40854;45.282;4.302;2023-02-13T16:49:36;93576.84;;;25.19;24.63
54951;BME280;40854;45.282;4.302;2023-02-13T16:52:19;93581.97;;;25.99;23.68
54951;BME280;40854;45.282;4.302;2023-02-13T16:54:58;93583.16;;;26.20;22.63
54951;BME280;40854;45.282;4.302;2023-02-13T16:57:42;93586.72;;;26.16;23.03
54951;BME280;40854;45.282;4.302;2023-02-13T17:00:19;93589.22;;;25.85;23.21
54951;BME280;40854;45.282;4.302;2023-02-13T17:02:46;93581.56;;;25.08;24.48
54951;BME280;40854;45.282;4.302;2023-02-13T17:05:27;93578.09;;;24.46;25.23
54951;BME280;40854;45.282;4.302;2023-02-13T17:07:54;93587.34;;;24.11;25.87
54951;BME280;40854;45.282;4.302;2023-02-13T17:10:28;93596.94;;;23.88;25.79
54951;BME280;40854;45.282;4.302;2023-02-13T17:12:57;93594.19;;;23.70;26.14
54951;BME280;40854;45.282;4.302;2023-02-13T17:15:29;93599.41;;;23.56;26.04
54951;BME280;40854;45.282;4.302;2023-02-13T17:17:55;93596.78;;;23.46;26.21
54951;BME280;40854;45.282;4.302;2023-02-13T17:20:41;93597.72;;;23.31;26.34
54951;BME280;40854;45.282;4.302;2023-02-13T17:23:15;93598.88;;;23.20;26.87
54951;BME280;40854;45.282;4.302;2023-02-13T17:25:42;93599.75;;;23.10;26.91
54951;BME280;40854;45.282;4.302;2023-02-13T17:28:16;93605.16;;;23.00;27.19
54951;BME280;40854;45.282;4.302;2023-02-13T17:30:43;93606.28;;;22.94;27.75
54951;BME280;40854;45.282;4.302;2023-02-13T17:33:27;93606.06;;;22.85;26.94
54951;BME280;40854;45.282;4.302;2023-02-13T17:35:53;93599.94;;;22.80;27.83
54951;BME280;40854;45.282;4.302;2023-02-13T17:38:19;93610.13;;;22.73;27.09
54951;BME280;40854;45.282;4.302;2023-02-13T17:40:46;93614.16;;;22.65;27.31
54951;BME280;40854;45.282;4.302;2023-02-13T17:43:14;93611.53;;;22.60;27.61
54951;BME280;40854;45.282;4.302;2023-02-13T17:45:40;93619.56;;;22.55;28.01
54951;BME280;40854;45.282;4.302;2023-02-13T17:48:06;93604.63;;;22.49;27.78
54951;BME280;40854;45.282;4.302;2023-02-13T17:50:34;93608.91;;;22.45;28.02
54951;BME280;40854;45.282;4.302;2023-02-13T17:53:27;93617.22;;;22.43;27.87
54951;BME280;40854;45.282;4.302;2023-02-13T17:55:56;93624.19;;;22.34;28.61
54951;BME280;40854;45.282;4.302;2023-02-13T17:58:22;93620.19;;;22.31;27.44
